sensor_id;sensor_type;location;lat;lon;timestamp;temperature;humidity
32522;DHT22;18963;51.504;5.316;2023-07-28T00:02:15;17.30;99.90
32522;DHT22;18963;51.504;5.316;2023-07-28T00:04:40;17.30;99.90
32522;DHT22;18963;51.504;5.316;2023-07-28T00:07:06;17.30;99.90
32522;DHT22;18963;51.504;5.316;2023-07-28T00:09:31;17.30;99.90
32522;DHT22;18963;51.504;5.316;2023-07-28T00:11:57;17.30;99.90
32522;DHT22;18963;51.504;5.316;2023-07-28T00:14:23;17.30;99.90
32522;DHT22;18963;51.504;5.316;2023-07-28T00:16:50;17.30;99.90
32522;DHT22;18963;51.504;5.316;2023-07-28T00:19:16;17.20;99.90
32522;DHT22;18963;51.504;5.316;2023-07-28T00:21:41;17.30;99.90
32522;DHT22;18963;51.504;5.316;2023-07-28T00:24:07;17.30;99.90
32522;DHT22;18963;51.504;5.316;2023-07-28T00:26:32;17.30;99.90
32522;DHT22;18963;51.504;5.316;2023-07-28T00:28:58;17.30;99.90
32522;DHT22;18963;51.504;5.316;2023-07-28T00:31:24;17.30;99.90
32522;DHT22;18963;51.504;5.316;2023-07-28T00:33:50;17.30;99.90
32522;DHT22;18963;51.504;5.316;2023-07-28T00:36:15;17.30;99.90
32522;DHT22;18963;51.504;5.316;2023-07-28T00:38:40;17.30;99.90
32522;DHT22;18963;51.504;5.316;2023-07-28T00:41:06;17.30;99.90
32522;DHT22;18963;51.504;5.316;2023-07-28T00:43:31;17.30;99.90
32522;DHT22;18963;51.504;5.316;2023-07-28T00:45:57;17.30;99.90
32522;DHT22;18963;51.504;5.316;2023-07-28T00:48:23;17.30;99.90
32522;DHT22;18963;51.504;5.316;2023-07-28T00:50:48;17.30;99.90
32522;DHT22;18963;51.504;5.316;2023-07-28T00:53:15;17.30;99.90
32522;DHT22;18963;51.504;5.316;2023-07-28T00:55:41;17.30;99.90
32522;DHT22;18963;51.504;5.316;2023-07-28T00:58:06;17.30;99.90
32522;DHT22;18963;51.504;5.316;2023-07-28T01:00:32;17.30;99.90
32522;DHT22;18963;51.504;5.316;2023-07-28T01:02:57;17.30;99.90
32522;DHT22;18963;51.504;5.316;2023-07-28T01:05:32;17.30;99.90
32522;DHT22;18963;51.504;5.316;2023-07-28T01:08:01;17.30;99.90
32522;DHT22;18963;51.504;5.316;2023-07-28T01:10:30;17.30;99.90
32522;DHT22;18963;51.504;5.316;2023-07-28T01:12:55;17.30;99.90
32522;DHT22;18963;51.504;5.316;2023-07-28T01:15:21;17.30;99.90
32522;DHT22;18963;51.504;5.316;2023-07-28T01:17:46;17.30;99.90
32522;DHT22;18963;51.504;5.316;2023-07-28T01:20:12;17.30;99.90
32522;DHT22;18963;51.504;5.316;2023-07-28T01:27:50;17.30;99.90
32522;DHT22;18963;51.504;5.316;2023-07-28T01:30:16;17.30;99.90
32522;DHT22;18963;51.504;5.316;2023-07-28T01:32:42;17.30;99.90
32522;DHT22;18963;51.504;5.316;2023-07-28T01:35:07;17.30;99.90
32522;DHT22;18963;51.504;5.316;2023-07-28T01:37:33;17.30;99.90
32522;DHT22;18963;51.504;5.316;2023-07-28T01:39:58;17.30;99.90
32522;DHT22;18963;51.504;5.316;2023-07-28T01:42:24;17.30;99.90
32522;DHT22;18963;51.504;5.316;2023-07-28T01:44:50;17.30;99.90
32522;DHT22;18963;51.504;5.316;2023-07-28T01:47:15;17.30;99.90
32522;DHT22;18963;51.504;5.316;2023-07-28T01:49:41;17.30;99.90
32522;DHT22;18963;51.504;5.316;2023-07-28T01:52:06;17.30;99.90
32522;DHT22;18963;51.504;5.316;2023-07-28T01:54:32;17.30;99.90
32522;DHT22;18963;51.504;5.316;2023-07-28T01:56:57;17.30;99.90
32522;DHT22;18963;51.504;5.316;2023-07-28T01:59:23;17.30;99.90
32522;DHT22;18963;51.504;5.316;2023-07-28T02:01:48;17.30;99.90
32522;DHT22;18963;51.504;5.316;2023-07-28T02:04:14;17.30;99.90
32522;DHT22;18963;51.504;5.316;2023-07-28T02:06:41;17.30;99.90
32522;DHT22;18963;51.504;5.316;2023-07-28T02:09:06;17.30;99.90
32522;DHT22;18963;51.504;5.316;2023-07-28T02:11:32;17.30;99.90
32522;DHT22;18963;51.504;5.316;2023-07-28T02:13:57;17.30;99.90
32522;DHT22;18963;51.504;5.316;2023-07-28T02:16:23;17.30;99.90
32522;DHT22;18963;51.504;5.316;2023-07-28T02:18:49;17.30;99.90
32522;DHT22;18963;51.504;5.316;2023-07-28T02:21:14;17.30;99.90
32522;DHT22;18963;51.504;5.316;2023-07-28T02:23:40;17.30;99.90
32522;DHT22;18963;51.504;5.316;2023-07-28T02:26:06;17.30;99.90
32522;DHT22;18963;51.504;5.316;2023-07-28T02:28:31;17.30;99.90
32522;DHT22;18963;51.504;5.316;2023-07-28T02:30:57;17.30;99.90
32522;DHT22;18963;51.504;5.316;2023-07-28T02:33:22;17.30;99.90
32522;DHT22;18963;51.504;5.316;2023-07-28T02:35:48;17.30;99.90
32522;DHT22;18963;51.504;5.316;2023-07-28T02:38:13;17.30;99.90
32522;DHT22;18963;51.504;5.316;2023-07-28T02:40:39;17.30;99.90
32522;DHT22;18963;51.504;5.316;2023-07-28T02:43:04;17.30;99.90
32522;DHT22;18963;51.504;5.316;2023-07-28T02:45:29;17.30;99.90
32522;DHT22;18963;51.504;5.316;2023-07-28T02:47:55;17.30;99.90
32522;DHT22;18963;51.504;5.316;2023-07-28T02:50:20;17.30;99.90
32522;DHT22;18963;51.504;5.316;2023-07-28T02:52:46;17.30;99.90
32522;DHT22;18963;51.504;5.316;2023-07-28T02:55:12;17.30;99.90
32522;DHT22;18963;51.504;5.316;2023-07-28T02:57:37;17.30;99.90
32522;DHT22;18963;51.504;5.316;2023-07-28T03:00:03;17.30;99.90
32522;DHT22;18963;51.504;5.316;2023-07-28T03:02:31;17.30;99.90
32522;DHT22;18963;51.504;5.316;2023-07-28T03:04:56;17.30;99.90
32522;DHT22;18963;51.504;5.316;2023-07-28T03:07:22;17.30;99.90
32522;DHT22;18963;51.504;5.316;2023-07-28T03:09:47;17.30;99.90
32522;DHT22;18963;51.504;5.316;2023-07-28T03:12:13;17.40;99.90
32522;DHT22;18963;51.504;5.316;2023-07-28T03:14:38;17.30;99.90
32522;DHT22;18963;51.504;5.316;2023-07-28T03:17:04;17.30;99.90
32522;DHT22;18963;51.504;5.316;2023-07-28T03:19:29;17.30;99.90
32522;DHT22;18963;51.504;5.316;2023-07-28T03:21:55;17.40;99.90
32522;DHT22;18963;51.504;5.316;2023-07-28T03:24:20;17.40;99.90
32522;DHT22;18963;51.504;5.316;2023-07-28T03:26:46;17.40;99.90
32522;DHT22;18963;51.504;5.316;2023-07-28T03:29:11;17.30;99.90
32522;DHT22;18963;51.504;5.316;2023-07-28T03:31:37;17.40;99.90
32522;DHT22;18963;51.504;5.316;2023-07-28T03:34:02;17.40;99.90
32522;DHT22;18963;51.504;5.316;2023-07-28T03:36:28;17.30;99.90
32522;DHT22;18963;51.504;5.316;2023-07-28T03:38:53;17.30;99.90
32522;DHT22;18963;51.504;5.316;2023-07-28T03:41:19;17.40;99.90
32522;DHT22;18963;51.504;5.316;2023-07-28T03:43:45;17.40;99.90
32522;DHT22;18963;51.504;5.316;2023-07-28T03:46:10;17.40;99.90
32522;DHT22;18963;51.504;5.316;2023-07-28T03:48:36;17.40;99.90
32522;DHT22;18963;51.504;5.316;2023-07-28T03:51:02;17.40;99.90
32522;DHT22;18963;51.504;5.316;2023-07-28T03:53:27;17.40;99.90
32522;DHT22;18963;51.504;5.316;2023-07-28T03:55:53;17.40;99.90
32522;DHT22;18963;51.504;5.316;2023-07-28T03:58:23;17.30;99.90
32522;DHT22;18963;51.504;5.316;2023-07-28T04:00:49;17.40;99.90
32522;DHT22;18963;51.504;5.316;2023-07-28T04:03:14;17.40;99.90
32522;DHT22;18963;51.504;5.316;2023-07-28T04:05:40;17.30;99.90
32522;DHT22;18963;51.504;5.316;2023-07-28T04:08:05;17.40;99.90
32522;DHT22;18963;51.504;5.316;2023-07-28T04:10:31;17.40;99.90
32522;DHT22;18963;51.504;5.316;2023-07-28T04:12:56;17.40;99.90
32522;DHT22;18963;51.504;5.316;2023-07-28T04:15:22;17.40;99.90
32522;DHT22;18963;51.504;5.316;2023-07-28T04:17:47;17.40;99.90
32522;DHT22;18963;51.504;5.316;2023-07-28T04:20:13;17.30;99.90
32522;DHT22;18963;51.504;5.316;2023-07-28T04:22:38;17.30;99.90
32522;DHT22;18963;51.504;5.316;2023-07-28T04:25:04;17.30;99.90
32522;DHT22;18963;51.504;5.316;2023-07-28T04:27:29;17.40;99.90
32522;DHT22;18963;51.504;5.316;2023-07-28T04:29:55;17.30;99.90
32522;DHT22;18963;51.504;5.316;2023-07-28T04:32:20;17.30;99.90
32522;DHT22;18963;51.504;5.316;2023-07-28T04:34:46;17.30;99.90
32522;DHT22;18963;51.504;5.316;2023-07-28T04:37:11;17.40;99.90
32522;DHT22;18963;51.504;5.316;2023-07-28T04:39:37;17.40;99.90
32522;DHT22;18963;51.504;5.316;2023-07-28T04:42:03;17.40;99.90
32522;DHT22;18963;51.504;5.316;2023-07-28T04:44:28;17.40;99.90
32522;DHT22;18963;51.504;5.316;2023-07-28T04:46:54;17.40;99.90
32522;DHT22;18963;51.504;5.316;2023-07-28T04:49:19;17.40;99.90
32522;DHT22;18963;51.504;5.316;2023-07-28T04:51:46;17.40;99.90
32522;DHT22;18963;51.504;5.316;2023-07-28T04:54:12;17.40;99.90
32522;DHT22;18963;51.504;5.316;2023-07-28T04:56:37;17.40;99.90
32522;DHT22;18963;51.504;5.316;2023-07-28T04:59:03;17.40;99.90
32522;DHT22;18963;51.504;5.316;2023-07-28T05:01:29;17.40;99.90
32522;DHT22;18963;51.504;5.316;2023-07-28T05:03:54;17.50;99.90
32522;DHT22;18963;51.504;5.316;2023-07-28T05:06:20;17.50;99.90
32522;DHT22;18963;51.504;5.316;2023-07-28T05:08:45;17.50;99.90
32522;DHT22;18963;51.504;5.316;2023-07-28T05:11:11;17.50;99.90
32522;DHT22;18963;51.504;5.316;2023-07-28T05:13:36;17.60;99.90
32522;DHT22;18963;51.504;5.316;2023-07-28T05:16:02;17.60;99.90
32522;DHT22;18963;51.504;5.316;2023-07-28T05:18:27;17.70;99.90
32522;DHT22;18963;51.504;5.316;2023-07-28T05:20:53;17.70;99.90
32522;DHT22;18963;51.504;5.316;2023-07-28T05:23:18;17.70;99.90
32522;DHT22;18963;51.504;5.316;2023-07-28T05:25:43;17.70;99.90
32522;DHT22;18963;51.504;5.316;2023-07-28T05:28:09;17.80;99.90
32522;DHT22;18963;51.504;5.316;2023-07-28T05:30:34;17.80;99.90
32522;DHT22;18963;51.504;5.316;2023-07-28T05:33:00;17.80;99.90
32522;DHT22;18963;51.504;5.316;2023-07-28T05:35:25;17.80;99.90
32522;DHT22;18963;51.504;5.316;2023-07-28T05:37:51;17.90;99.90
32522;DHT22;18963;51.504;5.316;2023-07-28T05:40:16;17.90;99.90
32522;DHT22;18963;51.504;5.316;2023-07-28T05:42:42;17.90;99.90
32522;DHT22;18963;51.504;5.316;2023-07-28T05:45:07;17.90;99.90
32522;DHT22;18963;51.504;5.316;2023-07-28T05:47:33;17.90;99.90
32522;DHT22;18963;51.504;5.316;2023-07-28T05:49:59;17.90;99.90
32522;DHT22;18963;51.504;5.316;2023-07-28T05:52:25;18.00;99.90
32522;DHT22;18963;51.504;5.316;2023-07-28T05:54:50;18.00;99.90
32522;DHT22;18963;51.504;5.316;2023-07-28T05:57:16;18.00;99.90
32522;DHT22;18963;51.504;5.316;2023-07-28T05:59:41;18.10;99.90
32522;DHT22;18963;51.504;5.316;2023-07-28T06:02:07;18.10;99.90
32522;DHT22;18963;51.504;5.316;2023-07-28T06:04:32;18.10;99.90
32522;DHT22;18963;51.504;5.316;2023-07-28T06:06:58;18.20;99.90
32522;DHT22;18963;51.504;5.316;2023-07-28T06:09:23;18.20;99.90
32522;DHT22;18963;51.504;5.316;2023-07-28T06:11:49;18.20;99.90
32522;DHT22;18963;51.504;5.316;2023-07-28T06:14:14;18.20;99.90
32522;DHT22;18963;51.504;5.316;2023-07-28T06:16:40;18.30;99.90
32522;DHT22;18963;51.504;5.316;2023-07-28T06:19:05;18.30;99.90
32522;DHT22;18963;51.504;5.316;2023-07-28T06:21:31;18.30;99.90
32522;DHT22;18963;51.504;5.316;2023-07-28T06:23:57;18.40;99.90
32522;DHT22;18963;51.504;5.316;2023-07-28T06:26:22;18.40;99.90
32522;DHT22;18963;51.504;5.316;2023-07-28T06:28:48;18.40;99.90
32522;DHT22;18963;51.504;5.316;2023-07-28T06:31:13;18.50;99.90
32522;DHT22;18963;51.504;5.316;2023-07-28T06:33:39;18.50;99.90
32522;DHT22;18963;51.504;5.316;2023-07-28T06:36:04;18.50;99.90
32522;DHT22;18963;51.504;5.316;2023-07-28T06:38:30;18.50;99.90
32522;DHT22;18963;51.504;5.316;2023-07-28T06:40:56;18.50;99.90
32522;DHT22;18963;51.504;5.316;2023-07-28T06:43:21;18.50;99.90
32522;DHT22;18963;51.504;5.316;2023-07-28T06:45:50;18.50;99.90
32522;DHT22;18963;51.504;5.316;2023-07-28T06:48:15;18.50;99.90
32522;DHT22;18963;51.504;5.316;2023-07-28T06:50:41;18.50;99.90
32522;DHT22;18963;51.504;5.316;2023-07-28T06:53:07;18.60;99.90
32522;DHT22;18963;51.504;5.316;2023-07-28T06:55:32;18.50;99.90
32522;DHT22;18963;51.504;5.316;2023-07-28T06:57:58;18.60;99.90
32522;DHT22;18963;51.504;5.316;2023-07-28T07:00:23;18.60;99.90
32522;DHT22;18963;51.504;5.316;2023-07-28T07:02:49;18.60;99.90
32522;DHT22;18963;51.504;5.316;2023-07-28T07:05:14;18.60;99.90
32522;DHT22;18963;51.504;5.316;2023-07-28T07:07:40;18.70;99.90
32522;DHT22;18963;51.504;5.316;2023-07-28T07:10:06;18.80;99.90
32522;DHT22;18963;51.504;5.316;2023-07-28T07:12:31;18.80;99.90
32522;DHT22;18963;51.504;5.316;2023-07-28T07:14:57;18.80;99.90
32522;DHT22;18963;51.504;5.316;2023-07-28T07:17:22;18.80;99.90
32522;DHT22;18963;51.504;5.316;2023-07-28T07:19:48;18.90;99.90
32522;DHT22;18963;51.504;5.316;2023-07-28T07:22:14;18.90;99.90
32522;DHT22;18963;51.504;5.316;2023-07-28T07:24:39;18.90;99.90
32522;DHT22;18963;51.504;5.316;2023-07-28T07:27:05;19.00;99.90
32522;DHT22;18963;51.504;5.316;2023-07-28T07:29:30;19.00;99.90
32522;DHT22;18963;51.504;5.316;2023-07-28T07:31:56;19.00;99.90
32522;DHT22;18963;51.504;5.316;2023-07-28T07:34:22;19.00;99.90
32522;DHT22;18963;51.504;5.316;2023-07-28T07:36:48;19.10;99.90
32522;DHT22;18963;51.504;5.316;2023-07-28T07:39:14;19.20;99.90
32522;DHT22;18963;51.504;5.316;2023-07-28T07:41:39;19.30;99.90
32522;DHT22;18963;51.504;5.316;2023-07-28T07:44:05;19.40;99.90
32522;DHT22;18963;51.504;5.316;2023-07-28T07:46:30;19.40;99.90
32522;DHT22;18963;51.504;5.316;2023-07-28T07:48:56;19.40;99.90
32522;DHT22;18963;51.504;5.316;2023-07-28T07:51:21;19.40;99.90
32522;DHT22;18963;51.504;5.316;2023-07-28T07:53:47;19.40;99.90
32522;DHT22;18963;51.504;5.316;2023-07-28T07:56:12;19.40;99.90
32522;DHT22;18963;51.504;5.316;2023-07-28T07:58:38;19.40;99.90
32522;DHT22;18963;51.504;5.316;2023-07-28T08:01:04;19.40;99.90
32522;DHT22;18963;51.504;5.316;2023-07-28T08:03:29;19.50;99.90
32522;DHT22;18963;51.504;5.316;2023-07-28T08:05:55;19.50;99.90
32522;DHT22;18963;51.504;5.316;2023-07-28T08:08:21;19.60;99.90
32522;DHT22;18963;51.504;5.316;2023-07-28T08:10:46;19.60;99.90
32522;DHT22;18963;51.504;5.316;2023-07-28T08:13:12;19.60;99.90
32522;DHT22;18963;51.504;5.316;2023-07-28T08:15:38;19.60;99.90
32522;DHT22;18963;51.504;5.316;2023-07-28T08:18:03;19.60;99.90
32522;DHT22;18963;51.504;5.316;2023-07-28T08:20:29;19.70;99.90
32522;DHT22;18963;51.504;5.316;2023-07-28T08:22:55;19.70;99.90
32522;DHT22;18963;51.504;5.316;2023-07-28T08:25:20;19.70;99.90
32522;DHT22;18963;51.504;5.316;2023-07-28T08:27:48;19.80;99.90
32522;DHT22;18963;51.504;5.316;2023-07-28T08:30:13;19.90;99.90
32522;DHT22;18963;51.504;5.316;2023-07-28T08:32:41;20.00;99.90
32522;DHT22;18963;51.504;5.316;2023-07-28T08:35:06;20.20;99.90
32522;DHT22;18963;51.504;5.316;2023-07-28T08:37:33;20.30;99.90
32522;DHT22;18963;51.504;5.316;2023-07-28T08:39:58;20.40;99.90
32522;DHT22;18963;51.504;5.316;2023-07-28T08:42:24;20.50;99.90
32522;DHT22;18963;51.504;5.316;2023-07-28T08:44:50;20.60;99.90
32522;DHT22;18963;51.504;5.316;2023-07-28T08:47:17;20.90;99.90
32522;DHT22;18963;51.504;5.316;2023-07-28T08:49:43;21.00;99.90
32522;DHT22;18963;51.504;5.316;2023-07-28T08:52:08;21.20;99.90
32522;DHT22;18963;51.504;5.316;2023-07-28T08:54:34;21.40;99.90
32522;DHT22;18963;51.504;5.316;2023-07-28T08:56:59;21.60;99.90
32522;DHT22;18963;51.504;5.316;2023-07-28T08:59:26;21.70;99.90
32522;DHT22;18963;51.504;5.316;2023-07-28T09:01:52;22.00;99.90
32522;DHT22;18963;51.504;5.316;2023-07-28T09:04:19;22.30;99.90
32522;DHT22;18963;51.504;5.316;2023-07-28T09:06:46;22.50;99.90
32522;DHT22;18963;51.504;5.316;2023-07-28T09:09:11;22.80;99.90
32522;DHT22;18963;51.504;5.316;2023-07-28T09:11:44;23.00;99.90
32522;DHT22;18963;51.504;5.316;2023-07-28T09:14:13;23.30;99.90
32522;DHT22;18963;51.504;5.316;2023-07-28T09:16:40;23.40;99.90
32522;DHT22;18963;51.504;5.316;2023-07-28T09:19:06;23.70;99.90
32522;DHT22;18963;51.504;5.316;2023-07-28T09:21:32;23.80;99.90
32522;DHT22;18963;51.504;5.316;2023-07-28T09:24:03;24.00;99.90
32522;DHT22;18963;51.504;5.316;2023-07-28T09:26:42;24.10;99.90
32522;DHT22;18963;51.504;5.316;2023-07-28T09:29:12;24.30;99.90
32522;DHT22;18963;51.504;5.316;2023-07-28T09:31:38;24.50;99.90
32522;DHT22;18963;51.504;5.316;2023-07-28T09:34:06;24.60;99.90
32522;DHT22;18963;51.504;5.316;2023-07-28T09:36:31;24.70;99.90
32522;DHT22;18963;51.504;5.316;2023-07-28T09:38:58;24.80;99.90
32522;DHT22;18963;51.504;5.316;2023-07-28T09:41:24;24.90;99.90
32522;DHT22;18963;51.504;5.316;2023-07-28T09:43:50;24.90;99.90
32522;DHT22;18963;51.504;5.316;2023-07-28T09:46:16;25.00;99.90
32522;DHT22;18963;51.504;5.316;2023-07-28T09:48:44;25.00;99.90
32522;DHT22;18963;51.504;5.316;2023-07-28T09:51:14;24.80;99.90
32522;DHT22;18963;51.504;5.316;2023-07-28T09:53:44;24.70;99.90
32522;DHT22;18963;51.504;5.316;2023-07-28T09:56:12;24.60;99.90
32522;DHT22;18963;51.504;5.316;2023-07-28T09:58:40;24.50;99.90
32522;DHT22;18963;51.504;5.316;2023-07-28T10:01:07;24.50;99.90
32522;DHT22;18963;51.504;5.316;2023-07-28T10:03:33;24.40;99.90
32522;DHT22;18963;51.504;5.316;2023-07-28T10:05:59;24.20;99.90
32522;DHT22;18963;51.504;5.316;2023-07-28T10:08:24;24.10;99.90
32522;DHT22;18963;51.504;5.316;2023-07-28T10:10:50;24.00;99.90
32522;DHT22;18963;51.504;5.316;2023-07-28T10:13:21;24.00;99.90
32522;DHT22;18963;51.504;5.316;2023-07-28T10:15:47;24.00;99.90
32522;DHT22;18963;51.504;5.316;2023-07-28T10:18:16;24.10;99.90
32522;DHT22;18963;51.504;5.316;2023-07-28T10:20:44;24.20;99.90
32522;DHT22;18963;51.504;5.316;2023-07-28T10:23:19;24.40;99.90
32522;DHT22;18963;51.504;5.316;2023-07-28T10:25:45;24.60;99.90
32522;DHT22;18963;51.504;5.316;2023-07-28T10:28:30;24.80;99.90
32522;DHT22;18963;51.504;5.316;2023-07-28T10:30:56;25.10;99.90
32522;DHT22;18963;51.504;5.316;2023-07-28T10:33:26;25.30;99.90
32522;DHT22;18963;51.504;5.316;2023-07-28T10:35:51;25.40;99.90
32522;DHT22;18963;51.504;5.316;2023-07-28T10:38:33;25.40;99.90
32522;DHT22;18963;51.504;5.316;2023-07-28T10:41:15;25.50;99.90
32522;DHT22;18963;51.504;5.316;2023-07-28T10:43:41;25.60;99.90
32522;DHT22;18963;51.504;5.316;2023-07-28T10:46:09;25.70;99.90
32522;DHT22;18963;51.504;5.316;2023-07-28T10:48:35;25.90;99.90
32522;DHT22;18963;51.504;5.316;2023-07-28T10:51:01;26.10;99.90
32522;DHT22;18963;51.504;5.316;2023-07-28T10:53:27;26.20;99.90
32522;DHT22;18963;51.504;5.316;2023-07-28T10:55:52;26.30;99.90
32522;DHT22;18963;51.504;5.316;2023-07-28T10:58:18;26.60;99.90
32522;DHT22;18963;51.504;5.316;2023-07-28T11:00:45;26.70;99.90
32522;DHT22;18963;51.504;5.316;2023-07-28T11:03:11;27.20;99.90
32522;DHT22;18963;51.504;5.316;2023-07-28T11:05:37;27.40;99.90
32522;DHT22;18963;51.504;5.316;2023-07-28T11:08:03;27.70;99.90
32522;DHT22;18963;51.504;5.316;2023-07-28T11:10:29;28.00;99.90
32522;DHT22;18963;51.504;5.316;2023-07-28T11:12:56;28.40;99.90
32522;DHT22;18963;51.504;5.316;2023-07-28T11:15:23;28.90;99.90
32522;DHT22;18963;51.504;5.316;2023-07-28T11:17:50;29.40;99.90
32522;DHT22;18963;51.504;5.316;2023-07-28T11:20:19;29.60;99.90
32522;DHT22;18963;51.504;5.316;2023-07-28T11:22:46;29.70;99.90
32522;DHT22;18963;51.504;5.316;2023-07-28T11:25:12;29.50;99.90
32522;DHT22;18963;51.504;5.316;2023-07-28T11:27:38;29.80;99.90
32522;DHT22;18963;51.504;5.316;2023-07-28T11:30:04;30.00;99.90
32522;DHT22;18963;51.504;5.316;2023-07-28T11:32:34;30.10;99.90
32522;DHT22;18963;51.504;5.316;2023-07-28T11:35:09;29.90;99.90
32522;DHT22;18963;51.504;5.316;2023-07-28T11:37:35;29.50;99.00
32522;DHT22;18963;51.504;5.316;2023-07-28T11:40:01;29.10;99.90
32522;DHT22;18963;51.504;5.316;2023-07-28T11:42:27;28.80;99.90
32522;DHT22;18963;51.504;5.316;2023-07-28T11:44:54;28.40;99.90
32522;DHT22;18963;51.504;5.316;2023-07-28T11:47:20;28.00;99.90
32522;DHT22;18963;51.504;5.316;2023-07-28T11:49:48;27.50;99.90
32522;DHT22;18963;51.504;5.316;2023-07-28T11:52:15;26.90;99.90
32522;DHT22;18963;51.504;5.316;2023-07-28T11:54:41;26.70;99.90
32522;DHT22;18963;51.504;5.316;2023-07-28T11:57:07;26.40;99.90
32522;DHT22;18963;51.504;5.316;2023-07-28T11:59:34;26.00;99.90
32522;DHT22;18963;51.504;5.316;2023-07-28T12:02:03;25.70;99.90
32522;DHT22;18963;51.504;5.316;2023-07-28T12:04:35;25.60;99.90
32522;DHT22;18963;51.504;5.316;2023-07-28T12:07:06;25.50;99.90
32522;DHT22;18963;51.504;5.316;2023-07-28T12:12:17;25.40;99.90
32522;DHT22;18963;51.504;5.316;2023-07-28T12:14:43;25.40;99.90
32522;DHT22;18963;51.504;5.316;2023-07-28T12:17:12;25.40;99.90
32522;DHT22;18963;51.504;5.316;2023-07-28T12:19:42;25.30;99.90
32522;DHT22;18963;51.504;5.316;2023-07-28T12:22:08;25.10;99.90
32522;DHT22;18963;51.504;5.316;2023-07-28T12:24:33;24.90;99.90
32522;DHT22;18963;51.504;5.316;2023-07-28T12:26:59;24.80;99.90
32522;DHT22;18963;51.504;5.316;2023-07-28T12:29:24;24.60;99.90
32522;DHT22;18963;51.504;5.316;2023-07-28T12:31:50;24.50;99.90
32522;DHT22;18963;51.504;5.316;2023-07-28T12:34:15;24.40;99.90
32522;DHT22;18963;51.504;5.316;2023-07-28T12:36:41;24.20;99.90
32522;DHT22;18963;51.504;5.316;2023-07-28T12:39:06;24.10;99.90
32522;DHT22;18963;51.504;5.316;2023-07-28T12:41:32;24.00;99.90
32522;DHT22;18963;51.504;5.316;2023-07-28T12:43:58;24.00;99.90
32522;DHT22;18963;51.504;5.316;2023-07-28T12:46:23;23.90;99.90
32522;DHT22;18963;51.504;5.316;2023-07-28T12:48:49;23.80;99.90
32522;DHT22;18963;51.504;5.316;2023-07-28T12:51:14;23.80;99.90
32522;DHT22;18963;51.504;5.316;2023-07-28T12:53:40;23.80;99.90
32522;DHT22;18963;51.504;5.316;2023-07-28T12:56:05;23.90;99.90
32522;DHT22;18963;51.504;5.316;2023-07-28T12:58:31;23.90;99.90
32522;DHT22;18963;51.504;5.316;2023-07-28T13:00:58;24.00;99.90
32522;DHT22;18963;51.504;5.316;2023-07-28T13:03:26;24.00;99.90
32522;DHT22;18963;51.504;5.316;2023-07-28T13:05:52;24.10;99.90
32522;DHT22;18963;51.504;5.316;2023-07-28T13:08:17;24.10;99.90
32522;DHT22;18963;51.504;5.316;2023-07-28T13:10:43;24.20;99.90
32522;DHT22;18963;51.504;5.316;2023-07-28T13:13:08;24.20;99.90
32522;DHT22;18963;51.504;5.316;2023-07-28T13:15:34;24.00;99.90
32522;DHT22;18963;51.504;5.316;2023-07-28T13:18:00;24.00;99.90
32522;DHT22;18963;51.504;5.316;2023-07-28T13:20:26;24.00;99.90
32522;DHT22;18963;51.504;5.316;2023-07-28T13:22:51;24.00;99.90
32522;DHT22;18963;51.504;5.316;2023-07-28T13:25:17;24.10;99.90
32522;DHT22;18963;51.504;5.316;2023-07-28T13:27:43;24.30;99.90
32522;DHT22;18963;51.504;5.316;2023-07-28T13:30:08;24.60;99.90
32522;DHT22;18963;51.504;5.316;2023-07-28T13:32:34;24.80;99.90
32522;DHT22;18963;51.504;5.316;2023-07-28T13:34:59;24.80;99.90
32522;DHT22;18963;51.504;5.316;2023-07-28T13:37:25;24.80;99.90
32522;DHT22;18963;51.504;5.316;2023-07-28T13:39:50;24.90;99.90
32522;DHT22;18963;51.504;5.316;2023-07-28T13:42:17;24.80;99.90
32522;DHT22;18963;51.504;5.316;2023-07-28T13:44:42;24.70;99.90
32522;DHT22;18963;51.504;5.316;2023-07-28T13:47:08;24.60;99.90
32522;DHT22;18963;51.504;5.316;2023-07-28T13:49:34;24.40;99.90
32522;DHT22;18963;51.504;5.316;2023-07-28T13:52:02;24.30;99.90
32522;DHT22;18963;51.504;5.316;2023-07-28T13:54:27;24.20;99.90
32522;DHT22;18963;51.504;5.316;2023-07-28T13:56:53;24.10;99.90
32522;DHT22;18963;51.504;5.316;2023-07-28T13:59:18;24.10;99.90
32522;DHT22;18963;51.504;5.316;2023-07-28T14:01:44;24.20;99.90
32522;DHT22;18963;51.504;5.316;2023-07-28T14:04:09;24.20;99.90
32522;DHT22;18963;51.504;5.316;2023-07-28T14:06:35;24.40;99.90
32522;DHT22;18963;51.504;5.316;2023-07-28T14:09:00;24.50;99.90
32522;DHT22;18963;51.504;5.316;2023-07-28T14:11:26;24.60;99.90
32522;DHT22;18963;51.504;5.316;2023-07-28T14:13:51;24.70;99.90
32522;DHT22;18963;51.504;5.316;2023-07-28T14:16:17;24.90;99.90
32522;DHT22;18963;51.504;5.316;2023-07-28T14:18:42;25.20;99.90
32522;DHT22;18963;51.504;5.316;2023-07-28T14:21:08;25.50;99.90
32522;DHT22;18963;51.504;5.316;2023-07-28T14:23:33;25.70;99.90
32522;DHT22;18963;51.504;5.316;2023-07-28T14:25:59;25.80;99.90
32522;DHT22;18963;51.504;5.316;2023-07-28T14:28:24;25.80;99.90
32522;DHT22;18963;51.504;5.316;2023-07-28T14:30:50;25.70;99.90
32522;DHT22;18963;51.504;5.316;2023-07-28T14:33:16;25.50;99.90
32522;DHT22;18963;51.504;5.316;2023-07-28T14:35:45;25.30;99.90
32522;DHT22;18963;51.504;5.316;2023-07-28T14:38:11;25.10;99.90
32522;DHT22;18963;51.504;5.316;2023-07-28T14:40:37;24.80;99.90
32522;DHT22;18963;51.504;5.316;2023-07-28T14:43:03;24.60;99.90
32522;DHT22;18963;51.504;5.316;2023-07-28T14:45:28;24.30;99.90
32522;DHT22;18963;51.504;5.316;2023-07-28T14:47:54;24.00;99.90
32522;DHT22;18963;51.504;5.316;2023-07-28T14:50:20;23.80;99.90
32522;DHT22;18963;51.504;5.316;2023-07-28T14:52:45;23.70;99.90
32522;DHT22;18963;51.504;5.316;2023-07-28T14:55:11;23.60;99.90
32522;DHT22;18963;51.504;5.316;2023-07-28T14:57:36;23.40;99.90
32522;DHT22;18963;51.504;5.316;2023-07-28T15:00:02;23.30;99.90
32522;DHT22;18963;51.504;5.316;2023-07-28T15:02:28;23.20;99.90
32522;DHT22;18963;51.504;5.316;2023-07-28T15:04:53;23.00;99.90
32522;DHT22;18963;51.504;5.316;2023-07-28T15:07:19;22.80;99.90
32522;DHT22;18963;51.504;5.316;2023-07-28T15:09:44;22.70;99.90
32522;DHT22;18963;51.504;5.316;2023-07-28T15:12:10;22.50;99.90
32522;DHT22;18963;51.504;5.316;2023-07-28T15:14:35;22.30;99.90
32522;DHT22;18963;51.504;5.316;2023-07-28T15:17:01;22.10;99.90
32522;DHT22;18963;51.504;5.316;2023-07-28T15:19:26;22.00;99.90
32522;DHT22;18963;51.504;5.316;2023-07-28T15:21:52;21.90;99.90
32522;DHT22;18963;51.504;5.316;2023-07-28T15:24:17;21.80;99.90
32522;DHT22;18963;51.504;5.316;2023-07-28T15:26:45;21.70;99.90
32522;DHT22;18963;51.504;5.316;2023-07-28T15:29:13;21.60;99.90
32522;DHT22;18963;51.504;5.316;2023-07-28T15:31:38;21.60;99.90